createdAt,value
2022-08-23T00:01:31.319Z,25.95
2022-08-23T00:04:01.067Z,26.02
2022-08-23T00:06:28.233Z,25.92
2022-08-23T00:08:55.087Z,25.94
2022-08-23T00:11:26.589Z,25.93
2022-08-23T00:13:53.179Z,25.94
2022-08-23T00:16:19.788Z,25.92
2022-08-23T00:18:48.990Z,25.93
2022-08-23T00:21:15.982Z,25.78
2022-08-23T00:23:42.610Z,25.83
2022-08-23T00:26:09.276Z,25.60
2022-08-23T00:28:35.948Z,25.44
2022-08-23T00:31:03.100Z,25.52
2022-08-23T00:33:29.660Z,25.57
2022-08-23T00:35:56.314Z,25.65
2022-08-23T00:38:33.800Z,25.65
2022-08-23T00:41:02.234Z,25.52
2022-08-23T00:43:58.764Z,25.60
2022-08-23T00:46:58.560Z,25.66
2022-08-23T00:49:25.843Z,25.70
2022-08-23T00:51:57.630Z,25.66
2022-08-23T00:54:25.359Z,25.49
2022-08-23T00:56:52.302Z,25.59
2022-08-23T00:59:19.542Z,25.53
2022-08-23T01:01:46.160Z,25.40
2022-08-23T01:04:13.126Z,25.37
2022-08-23T01:06:44.553Z,25.41
2022-08-23T01:09:17.021Z,25.40
2022-08-23T01:11:51.148Z,25.52
2022-08-23T01:14:19.820Z,25.45
2022-08-23T01:16:49.697Z,25.43
2022-08-23T01:19:42.395Z,25.36
2022-08-23T01:22:09.356Z,25.47
2022-08-23T01:25:05.726Z,25.51
2022-08-23T01:27:23.187Z,25.60
2022-08-23T01:29:49.801Z,25.42
2022-08-23T01:32:16.728Z,25.39
2022-08-23T01:34:51.497Z,25.39
2022-08-23T01:37:19.757Z,25.31
2022-08-23T01:39:46.352Z,25.30
2022-08-23T01:42:12.980Z,25.31
2022-08-23T01:44:39.677Z,25.24
2022-08-23T01:47:07.578Z,25.33
2022-08-23T01:49:35.218Z,25.32
2022-08-23T01:52:01.835Z,25.33
2022-08-23T01:54:29.452Z,25.26
2022-08-23T01:56:56.641Z,25.19
2022-08-23T01:59:24.294Z,25.13
2022-08-23T02:01:51.444Z,25.17
2022-08-23T02:04:18.146Z,25.13
2022-08-23T02:06:44.771Z,25.19
2022-08-23T02:09:17.886Z,25.21
2022-08-23T02:11:45.483Z,25.33
2022-08-23T02:14:14.326Z,25.20
2022-08-23T02:16:43.838Z,25.27
2022-08-23T02:19:25.416Z,25.34
2022-08-23T02:21:53.158Z,25.22
2022-08-23T02:24:21.528Z,25.27
2022-08-23T02:26:49.864Z,25.26
2022-08-23T02:29:23.904Z,25.06
2022-08-23T02:31:50.884Z,24.99
2022-08-23T02:34:18.455Z,25.02
2022-08-23T02:36:45.430Z,25.01
2022-08-23T02:39:13.450Z,25.13
2022-08-23T02:41:41.399Z,25.16
2022-08-23T02:44:08.661Z,25.18
2022-08-23T02:46:35.709Z,25.08
2022-08-23T02:49:02.409Z,25.26
2022-08-23T02:51:29.040Z,25.20
2022-08-23T02:53:55.584Z,25.26
2022-08-23T02:56:22.194Z,25.09
2022-08-23T02:58:54.044Z,25.00
2022-08-23T03:01:26.702Z,24.86
2022-08-23T03:03:53.595Z,24.91
2022-08-23T03:06:25.348Z,24.81
2022-08-23T03:08:53.695Z,24.91
2022-08-23T03:11:21.862Z,24.85
2022-08-23T03:13:48.814Z,24.79
2022-08-23T03:16:16.414Z,24.84
2022-08-23T03:18:43.434Z,24.93
2022-08-23T03:21:10.404Z,24.82
2022-08-23T03:23:37.550Z,24.70
2022-08-23T03:26:04.874Z,24.66
2022-08-23T03:28:33.112Z,24.81
2022-08-23T03:30:59.647Z,24.92
2022-08-23T03:33:26.327Z,24.85
2022-08-23T03:35:52.923Z,24.96
2022-08-23T03:38:20.003Z,25.08
2022-08-23T03:40:46.607Z,25.02
2022-08-23T03:43:14.784Z,25.04
2022-08-23T03:45:41.396Z,24.99
2022-08-23T03:48:07.943Z,25.09
2022-08-23T03:50:34.570Z,25.07
2022-08-23T03:53:01.119Z,25.07
2022-08-23T03:55:27.796Z,25.10
2022-08-23T03:57:54.416Z,25.19
2022-08-23T04:00:21.223Z,25.08
2022-08-23T04:02:47.908Z,25.15
2022-08-23T04:05:14.448Z,25.02
2022-08-23T04:07:41.031Z,25.06
2022-08-23T04:10:08.912Z,24.97
2022-08-23T04:12:36.148Z,24.89
2022-08-23T04:15:03.472Z,25.11
2022-08-23T04:17:32.484Z,24.91
2022-08-23T04:19:59.472Z,24.73
2022-08-23T04:22:26.057Z,24.85
2022-08-23T04:24:52.682Z,24.98
2022-08-23T04:27:19.327Z,25.18
2022-08-23T04:29:45.885Z,24.80
2022-08-23T04:32:12.615Z,24.85
2022-08-23T04:34:45.386Z,24.91
2022-08-23T04:37:12.765Z,24.85
2022-08-23T04:39:58.039Z,24.82
2022-08-23T04:42:24.995Z,24.84
2022-08-23T04:44:51.569Z,24.81
2022-08-23T04:47:18.177Z,24.78
2022-08-23T04:49:44.725Z,24.79
2022-08-23T04:52:12.207Z,24.81
2022-08-23T04:54:40.793Z,24.77
2022-08-23T04:57:07.374Z,24.71
2022-08-23T04:59:33.915Z,24.81
2022-08-23T05:02:00.474Z,24.74
2022-08-23T05:04:27.034Z,24.74
2022-08-23T05:06:53.653Z,24.70
2022-08-23T05:09:20.904Z,24.75
2022-08-23T05:11:47.641Z,24.88
2022-08-23T05:14:14.233Z,24.95
2022-08-23T05:16:40.770Z,25.02
2022-08-23T05:19:07.372Z,25.08
2022-08-23T05:21:33.940Z,25.06
2022-08-23T05:24:00.673Z,25.21
2022-08-23T05:26:30.314Z,25.23
2022-08-23T05:28:56.949Z,25.21
2022-08-23T05:31:24.805Z,25.27
2022-08-23T05:33:51.890Z,25.29
2022-08-23T05:36:19.272Z,25.31
2022-08-23T05:38:47.236Z,25.37
2022-08-23T05:41:15.262Z,25.24
2022-08-23T05:43:42.301Z,25.33
2022-08-23T05:46:12.663Z,25.33
2022-08-23T05:48:41.092Z,25.35
2022-08-23T05:51:16.540Z,25.58
2022-08-23T05:53:43.689Z,25.66
2022-08-23T05:56:13.428Z,25.51
2022-08-23T05:58:40.094Z,25.50
2022-08-23T06:01:06.754Z,25.44
2022-08-23T06:03:33.468Z,25.43
2022-08-23T06:06:00.599Z,25.52
2022-08-23T06:08:28.366Z,25.53
2022-08-23T06:11:01.002Z,25.60
2022-08-23T06:13:27.766Z,25.54
2022-08-23T06:15:54.648Z,25.38
2022-08-23T06:18:21.208Z,25.52
2022-08-23T06:20:47.860Z,25.61
2022-08-23T06:23:14.441Z,25.54
2022-08-23T06:25:41.196Z,25.71
2022-08-23T06:28:07.791Z,25.70
2022-08-23T06:30:39.831Z,25.70
2022-08-23T06:33:06.640Z,25.62
2022-08-23T06:35:38.778Z,25.65
2022-08-23T06:38:06.802Z,25.53
2022-08-23T06:40:35.471Z,25.45
2022-08-23T06:43:02.019Z,25.49
2022-08-23T06:45:32.408Z,25.49
2022-08-23T06:48:02.410Z,25.63
2022-08-23T06:50:32.455Z,25.68
2022-08-23T06:52:59.216Z,25.71
2022-08-23T06:55:25.949Z,25.69
2022-08-23T06:57:52.549Z,25.76
2022-08-23T07:00:22.276Z,25.62
2022-08-23T07:02:50.297Z,25.67
2022-08-23T07:05:17.061Z,25.59
2022-08-23T07:07:44.410Z,25.54
2022-08-23T07:10:11.416Z,25.57
2022-08-23T07:12:38.907Z,25.64
2022-08-23T07:15:05.630Z,25.62
2022-08-23T07:17:32.177Z,25.64
2022-08-23T07:19:58.732Z,25.69
2022-08-23T07:22:25.328Z,25.74
2022-08-23T07:24:51.916Z,25.78
2022-08-23T07:27:18.510Z,25.69
2022-08-23T07:29:45.133Z,25.59
2022-08-23T07:32:11.779Z,25.69
2022-08-23T07:34:38.485Z,25.80
2022-08-23T07:37:15.191Z,25.78
2022-08-23T07:39:42.576Z,25.78
2022-08-23T07:42:23.449Z,25.78
2022-08-23T07:44:51.680Z,25.84
2022-08-23T07:47:19.345Z,25.97
2022-08-23T07:49:46.792Z,25.99
2022-08-23T07:52:13.371Z,25.98
2022-08-23T07:54:40.496Z,26.02
2022-08-23T07:57:10.171Z,26.06
2022-08-23T07:59:36.718Z,26.11
2022-08-23T08:02:03.547Z,26.08
2022-08-23T08:04:30.218Z,26.09
2022-08-23T08:07:17.771Z,26.15
2022-08-23T08:09:45.409Z,26.26
2022-08-23T08:12:12.089Z,26.39
2022-08-23T08:14:38.915Z,26.28
2022-08-23T08:17:06.017Z,26.34
2022-08-23T08:19:32.572Z,26.35
2022-08-23T08:21:59.220Z,26.44
2022-08-23T08:24:25.807Z,26.42
2022-08-23T08:26:52.525Z,26.46
2022-08-23T08:29:19.198Z,26.53
2022-08-23T08:31:51.289Z,26.51
2022-08-23T08:34:20.288Z,26.56
2022-08-23T08:36:54.697Z,26.57
2022-08-23T08:39:23.720Z,26.55
2022-08-23T08:42:03.942Z,26.61
2022-08-23T08:44:40.839Z,26.50
2022-08-23T08:47:10.735Z,26.53
2022-08-23T08:49:40.746Z,26.44
2022-08-23T08:52:21.291Z,26.54
2022-08-23T08:54:49.881Z,26.63
2022-08-23T08:57:22.624Z,26.63
2022-08-23T08:59:53.918Z,26.70
2022-08-23T09:02:32.294Z,26.78
2022-08-23T09:05:04.766Z,26.83
2022-08-23T09:07:37.369Z,26.87
2022-08-23T09:10:26.202Z,26.83
2022-08-23T09:12:57.557Z,26.82
2022-08-23T09:15:33.059Z,26.87
2022-08-23T09:18:17.750Z,26.89
2022-08-23T09:20:45.863Z,26.87
2022-08-23T09:23:17.779Z,26.90
2022-08-23T09:26:02.613Z,26.93
2022-08-23T09:28:31.685Z,26.90
2022-08-23T09:30:59.086Z,26.90
2022-08-23T09:33:27.389Z,26.94
2022-08-23T09:36:05.392Z,26.96
2022-08-23T09:38:32.675Z,27.04
2022-08-23T09:40:59.529Z,27.09
2022-08-23T09:43:27.831Z,27.11
2022-08-23T09:45:54.370Z,27.11
2022-08-23T09:48:36.103Z,27.12
2022-08-23T09:51:05.554Z,27.19
2022-08-23T09:53:32.454Z,27.24
2022-08-23T09:56:09.519Z,27.18
2022-08-23T09:58:37.621Z,27.23
2022-08-23T10:01:24.508Z,27.27
2022-08-23T10:04:10.414Z,27.29
2022-08-23T10:06:37.578Z,27.33
2022-08-23T10:09:05.827Z,27.34
2022-08-23T10:11:36.490Z,27.29
2022-08-23T10:14:03.247Z,27.39
2022-08-23T10:16:30.284Z,27.32
2022-08-23T10:18:56.856Z,27.41
2022-08-23T10:21:28.065Z,27.47
2022-08-23T10:24:14.335Z,27.48
2022-08-23T10:26:57.965Z,27.50
2022-08-23T10:29:53.989Z,27.62
2022-08-23T10:32:35.041Z,27.75
2022-08-23T10:35:24.955Z,27.68
2022-08-23T10:37:58.861Z,27.85
2022-08-23T10:40:28.973Z,28.02
2022-08-23T10:43:13.623Z,27.95
2022-08-23T10:45:41.694Z,28.05
2022-08-23T10:48:16.249Z,28.09
2022-08-23T10:51:11.237Z,28.10
2022-08-23T10:53:46.789Z,28.14
2022-08-23T10:56:19.098Z,28.19
2022-08-23T10:58:55.053Z,28.14
2022-08-23T11:01:37.006Z,28.17
2022-08-23T11:04:15.886Z,28.25
2022-08-23T11:06:49.399Z,28.21
2022-08-23T11:09:19.267Z,28.24
2022-08-23T11:12:07.055Z,28.23
2022-08-23T11:14:48.196Z,28.26
2022-08-23T11:17:34.986Z,28.27
2022-08-23T11:20:04.321Z,28.65
2022-08-23T11:22:32.333Z,28.72
2022-08-23T11:25:01.436Z,28.63
2022-08-23T11:27:39.434Z,28.85
2022-08-23T11:30:24.855Z,28.73
2022-08-23T11:32:51.550Z,28.68
2022-08-23T11:35:33.234Z,28.86
2022-08-23T11:38:08.758Z,28.94
2022-08-23T11:40:56.865Z,28.84
2022-08-23T11:43:26.899Z,28.50
2022-08-23T11:45:57.229Z,28.50
2022-08-23T11:48:43.538Z,28.58
2022-08-23T11:51:29.702Z,28.52
2022-08-23T11:53:59.730Z,28.53
2022-08-23T11:56:26.642Z,28.86
2022-08-23T11:59:09.185Z,29.00
2022-08-23T12:01:39.210Z,28.90
2022-08-23T12:04:14.633Z,28.97
2022-08-23T12:06:50.505Z,29.09
2022-08-23T12:09:21.623Z,29.15
2022-08-23T12:11:57.550Z,29.03
2022-08-23T12:14:36.776Z,28.98
2022-08-23T12:17:15.330Z,29.14
2022-08-23T12:19:43.926Z,29.19
2022-08-23T12:22:13.672Z,29.09
2022-08-23T12:24:42.783Z,29.20
2022-08-23T12:27:28.618Z,29.33
2022-08-23T12:30:17.219Z,29.18
2022-08-23T12:32:47.225Z,29.04
2022-08-23T12:35:30.432Z,29.14
2022-08-23T12:38:07.100Z,29.31
2022-08-23T12:40:42.523Z,29.34
2022-08-23T12:43:22.733Z,29.28
2022-08-23T12:45:55.527Z,29.05
2022-08-23T12:48:24.322Z,28.96
2022-08-23T12:50:56.129Z,29.27
2022-08-23T12:53:45.257Z,29.18
2022-08-23T12:56:18.552Z,29.09
2022-08-23T12:58:52.217Z,29.16
2022-08-23T13:01:25.112Z,29.06
2022-08-23T13:04:17.291Z,29.12
2022-08-23T13:06:49.587Z,29.12
2022-08-23T13:09:23.152Z,29.03
2022-08-23T13:11:50.419Z,29.09
2022-08-23T13:14:33.280Z,29.10
2022-08-23T13:17:17.748Z,29.28
2022-08-23T13:19:45.095Z,29.07
2022-08-23T13:22:22.378Z,28.86
2022-08-23T13:25:24.566Z,29.16
2022-08-23T13:27:44.935Z,29.13
2022-08-23T13:30:11.595Z,28.95
2022-08-23T13:32:40.218Z,29.16
2022-08-23T13:35:26.985Z,29.28
2022-08-23T13:38:02.558Z,29.42
2022-08-23T13:40:31.727Z,29.24
2022-08-23T13:43:04.532Z,29.19
2022-08-23T13:45:32.829Z,29.20
2022-08-23T13:48:05.386Z,29.12
2022-08-23T13:50:34.581Z,29.09
2022-08-23T13:53:17.460Z,29.02
2022-08-23T13:55:48.779Z,29.05
2022-08-23T13:58:18.395Z,29.10
2022-08-23T14:00:55.591Z,29.15
2022-08-23T14:03:23.007Z,29.15
2022-08-23T14:05:49.635Z,29.46
2022-08-23T14:08:16.199Z,29.27
2022-08-23T14:10:43.056Z,29.30
2022-08-23T14:13:11.362Z,29.56
2022-08-23T14:15:56.785Z,29.53
2022-08-23T14:18:25.309Z,29.46
2022-08-23T14:20:52.346Z,29.34
2022-08-23T14:23:19.162Z,29.25
2022-08-23T14:25:47.225Z,29.51
2022-08-23T14:28:13.908Z,29.66
2022-08-23T14:30:40.543Z,29.61
2022-08-23T14:33:07.512Z,29.55
2022-08-23T14:35:34.312Z,29.70
2022-08-23T14:38:03.326Z,29.76
2022-08-23T14:40:30.658Z,29.57
2022-08-23T14:42:57.480Z,29.59
2022-08-23T14:45:24.052Z,29.76
2022-08-23T14:47:50.634Z,29.68
2022-08-23T14:50:17.201Z,29.84
2022-08-23T14:52:45.751Z,29.94
2022-08-23T14:55:12.446Z,29.97
2022-08-23T14:57:39.112Z,29.95
2022-08-23T15:00:07.372Z,30.06
2022-08-23T15:02:36.510Z,29.90
2022-08-23T15:05:03.950Z,30.15
2022-08-23T15:07:30.529Z,30.12
2022-08-23T15:09:57.094Z,30.26
2022-08-23T15:15:13.896Z,30.25
2022-08-23T15:17:52.374Z,30.31
2022-08-23T15:20:23.263Z,30.37
2022-08-23T15:22:55.386Z,30.43
2022-08-23T15:25:23.330Z,30.40
2022-08-23T15:27:50.679Z,30.55
2022-08-23T15:30:17.739Z,30.63
2022-08-23T15:32:56.188Z,30.47
2022-08-23T15:35:24.346Z,30.55
2022-08-23T15:37:52.709Z,30.61
2022-08-23T15:40:19.712Z,30.59
2022-08-23T15:42:46.778Z,30.35
2022-08-23T15:45:13.648Z,30.10
2022-08-23T15:47:49.444Z,30.07
2022-08-23T15:50:19.793Z,29.70
2022-08-23T15:52:46.754Z,29.51
2022-08-23T15:55:14.026Z,29.74
2022-08-23T15:57:43.378Z,29.51
2022-08-23T16:00:11.613Z,29.51
2022-08-23T16:02:57.589Z,29.40
2022-08-23T16:05:25.538Z,29.35
2022-08-23T16:07:54.199Z,29.28
2022-08-23T16:10:21.192Z,29.20
2022-08-23T16:12:48.184Z,29.20
2022-08-23T16:15:14.992Z,29.18
2022-08-23T16:17:42.105Z,29.22
2022-08-23T16:20:10.559Z,29.04
2022-08-23T16:22:37.294Z,28.91
2022-08-23T16:25:05.120Z,28.93
2022-08-23T16:27:31.945Z,28.93
2022-08-23T16:29:58.735Z,28.85
2022-08-23T16:32:25.430Z,28.94
2022-08-23T16:34:52.029Z,28.93
2022-08-23T16:37:18.579Z,28.92
2022-08-23T16:39:45.363Z,28.82
2022-08-23T16:42:12.119Z,28.81
2022-08-23T16:44:38.725Z,28.79
2022-08-23T16:47:07.591Z,28.73
2022-08-23T16:49:34.855Z,28.71
2022-08-23T16:52:02.372Z,28.75
2022-08-23T16:54:29.018Z,28.72
2022-08-23T16:56:55.694Z,28.81
2022-08-23T16:59:22.632Z,28.72
2022-08-23T17:01:54.419Z,28.79
2022-08-23T17:04:21.686Z,28.64
2022-08-23T17:06:48.321Z,28.60
2022-08-23T17:09:14.977Z,28.55
2022-08-23T17:11:42.625Z,28.57
2022-08-23T17:14:09.753Z,28.56
2022-08-23T17:16:36.786Z,28.58
2022-08-23T17:19:03.606Z,28.52
2022-08-23T17:21:30.439Z,28.47
2022-08-23T17:23:57.305Z,28.54
2022-08-23T17:26:24.126Z,28.44
2022-08-23T17:28:50.692Z,28.31
2022-08-23T17:31:18.119Z,28.43
2022-08-23T17:33:44.790Z,28.33
2022-08-23T17:36:40.656Z,28.22
2022-08-23T17:39:09.741Z,28.25
2022-08-23T17:41:36.888Z,28.33
2022-08-23T17:44:04.337Z,28.31
2022-08-23T17:46:31.692Z,28.26
2022-08-23T17:48:58.420Z,28.32
2022-08-23T17:51:25.103Z,28.26
2022-08-23T17:53:51.763Z,28.27
2022-08-23T17:56:18.480Z,28.17
2022-08-23T17:58:46.968Z,28.19
2022-08-23T18:01:13.741Z,28.13
2022-08-23T18:03:40.558Z,28.19
2022-08-23T18:06:16.697Z,28.13
2022-08-23T18:08:44.233Z,28.18
2022-08-23T18:11:10.915Z,28.11
2022-08-23T18:13:37.540Z,28.15
2022-08-23T18:16:04.213Z,27.85
2022-08-23T18:18:30.942Z,27.63
2022-08-23T18:20:57.606Z,27.61
2022-08-23T18:23:24.222Z,27.55
2022-08-23T18:25:51.008Z,27.50
2022-08-23T18:28:18.191Z,27.53
2022-08-23T18:30:52.400Z,27.53
2022-08-23T18:33:20.288Z,27.51
2022-08-23T18:35:52.403Z,27.50
2022-08-23T18:38:19.086Z,27.50
2022-08-23T18:40:46.587Z,27.53
2022-08-23T18:43:14.697Z,27.45
2022-08-23T18:45:41.796Z,27.41
2022-08-23T18:48:08.540Z,27.35
2022-08-23T18:50:35.178Z,27.44
2022-08-23T18:53:01.927Z,27.36
2022-08-23T18:55:28.631Z,27.53
2022-08-23T18:57:55.192Z,27.46
2022-08-23T19:00:21.784Z,27.43
2022-08-23T19:02:48.349Z,27.43
2022-08-23T19:05:14.998Z,27.48
2022-08-23T19:07:41.580Z,27.46
2022-08-23T19:10:08.373Z,27.49
2022-08-23T19:12:34.992Z,27.47
2022-08-23T19:15:01.596Z,27.50
2022-08-23T19:17:28.154Z,27.50
2022-08-23T19:19:54.751Z,27.51
2022-08-23T19:22:21.417Z,27.51
2022-08-23T19:24:48.148Z,27.51
2022-08-23T19:27:15.157Z,27.54
2022-08-23T19:29:43.245Z,27.52
2022-08-23T19:32:12.968Z,27.54
2022-08-23T19:34:40.233Z,27.55
2022-08-23T19:37:15.721Z,27.54
2022-08-23T19:39:49.835Z,27.56
2022-08-23T19:42:16.472Z,27.56
2022-08-23T19:44:43.044Z,27.57
2022-08-23T19:47:13.381Z,27.56
2022-08-23T19:49:46.629Z,27.62
2022-08-23T19:52:13.185Z,27.60
2022-08-23T19:54:39.808Z,27.61
2022-08-23T19:57:08.255Z,27.63
2022-08-23T19:59:36.187Z,27.61
2022-08-23T20:02:03.027Z,27.63
2022-08-23T20:04:30.727Z,27.66
2022-08-23T20:06:58.146Z,27.68
2022-08-23T20:09:25.275Z,27.67
2022-08-23T20:11:52.716Z,27.65
2022-08-23T20:14:20.333Z,27.61
2022-08-23T20:16:48.295Z,27.61
2022-08-23T20:19:15.109Z,27.58
2022-08-23T20:21:42.245Z,27.59
2022-08-23T20:24:09.954Z,27.52
2022-08-23T20:26:41.380Z,27.53
2022-08-23T20:29:09.161Z,27.62
2022-08-23T20:31:37.094Z,27.61
2022-08-23T20:34:04.769Z,27.49
2022-08-23T20:36:33.417Z,27.64
2022-08-23T20:39:00.774Z,27.67
2022-08-23T20:41:28.234Z,27.67
2022-08-23T20:43:55.546Z,27.71
2022-08-23T20:46:22.371Z,27.59
2022-08-23T20:48:49.465Z,27.62
2022-08-23T20:51:16.037Z,27.72
2022-08-23T20:53:42.873Z,27.66
2022-08-23T20:56:10.077Z,27.65
2022-08-23T20:58:36.782Z,27.62
2022-08-23T21:01:04.429Z,27.60
2022-08-23T21:03:36.772Z,27.59
2022-08-23T21:06:08.861Z,27.56
2022-08-23T21:08:35.578Z,27.60
2022-08-23T21:11:10.049Z,27.61
2022-08-23T21:13:36.862Z,27.60
2022-08-23T21:16:03.587Z,27.56
2022-08-23T21:18:30.426Z,27.59
2022-08-23T21:20:56.971Z,27.60
2022-08-23T21:23:24.849Z,27.59
2022-08-23T21:25:54.968Z,27.58
2022-08-23T21:28:22.387Z,27.57
2022-08-23T21:30:49.075Z,27.59
2022-08-23T21:33:16.118Z,27.60
2022-08-23T21:35:43.073Z,27.59
2022-08-23T21:38:09.953Z,27.60
2022-08-23T21:40:36.787Z,27.58
2022-08-23T21:43:03.604Z,27.58
2022-08-23T21:45:30.366Z,27.44
2022-08-23T21:47:58.741Z,27.51
2022-08-23T21:50:28.726Z,27.54
2022-08-23T21:52:56.636Z,27.53
2022-08-23T21:55:36.098Z,27.55
2022-08-23T21:58:03.684Z,27.52
2022-08-23T22:00:30.338Z,27.48
2022-08-23T22:02:56.989Z,27.38
2022-08-23T22:05:23.862Z,27.37
2022-08-23T22:07:51.970Z,27.40
2022-08-23T22:10:18.850Z,27.31
2022-08-23T22:12:45.491Z,27.42
2022-08-23T22:15:12.055Z,27.30
2022-08-23T22:17:38.634Z,27.41
2022-08-23T22:20:07.156Z,27.31
2022-08-23T22:22:33.985Z,27.31
2022-08-23T22:25:01.245Z,27.34
2022-08-23T22:27:28.275Z,27.27
2022-08-23T22:29:55.595Z,27.31
2022-08-23T22:32:22.868Z,27.29
2022-08-23T22:34:49.459Z,27.18
2022-08-23T22:37:16.128Z,27.06
2022-08-23T22:39:43.017Z,27.00
2022-08-23T22:42:10.058Z,26.98
2022-08-23T22:44:36.739Z,27.07
2022-08-23T22:47:03.345Z,26.97
2022-08-23T22:49:30.917Z,27.01
2022-08-23T22:51:57.930Z,27.06
2022-08-23T22:54:25.227Z,27.00
2022-08-23T22:56:52.618Z,27.02
2022-08-23T22:59:20.563Z,26.98
2022-08-23T23:01:48.982Z,27.03
2022-08-23T23:04:16.478Z,26.98
2022-08-23T23:06:44.017Z,26.93
2022-08-23T23:09:11.538Z,27.01
2022-08-23T23:11:40.247Z,27.02
2022-08-23T23:14:07.339Z,27.08
2022-08-23T23:16:34.348Z,26.92
2022-08-23T23:19:19.418Z,26.98
2022-08-23T23:21:50.645Z,26.85
2022-08-23T23:24:19.756Z,26.81
2022-08-23T23:26:47.724Z,26.76
2022-08-23T23:29:14.832Z,26.81
2022-08-23T23:31:41.484Z,26.74
2022-08-23T23:34:08.237Z,26.74
2022-08-23T23:36:34.986Z,26.69
2022-08-23T23:39:04.118Z,26.76
2022-08-23T23:41:31.302Z,26.74
2022-08-23T23:43:58.061Z,26.67
2022-08-23T23:46:25.261Z,26.79
2022-08-23T23:48:52.119Z,26.80
2022-08-23T23:51:26.025Z,26.78
2022-08-23T23:53:53.151Z,26.78
2022-08-23T23:56:21.053Z,26.73
2022-08-23T23:58:48.129Z,26.82
